Time;durP1;ratioP1;P1;durP2;ratioP2;P2;SDS_P1;SDS_P2;PMS_P1;PMS_P2;Temp;Humidity;BMP_temperature;BMP_pressure;BME280_temperature;BME280_humidity;BME280_pressure;Samples;Min_cycle;Max_cycle;Signal;HPM_P1;HPM_P2
2022/01/12 00:01:46;;;;;;;27.15;13.93;;;1.70;99.90;;;;;;4947337;28;20051;-65
2022/01/12 00:04:13;;;;;;;20.63;12.70;;;1.70;99.90;;;;;;4950380;28;20035;-68
2022/01/12 00:06:40;;;;;;;18.58;13.35;;;1.70;99.90;;;;;;4945377;28;20040;-67
2022/01/12 00:09:07;;;;;;;18.73;12.80;;;1.70;99.90;;;;;;4951121;28;20104;-62
2022/01/12 00:11:36;;;;;;;17.30;12.88;;;1.70;99.90;;;;;;4943653;28;20119;-64
2022/01/12 00:14:04;;;;;;;20.58;13.30;;;1.70;99.90;;;;;;4945507;28;20475;-65
2022/01/12 00:16:32;;;;;;;20.25;12.98;;;1.70;99.90;;;;;;4948435;28;20043;-62
2022/01/12 00:18:59;;;;;;;24.55;13.85;;;1.70;99.90;;;;;;4947353;28;20070;-64
2022/01/12 00:21:26;;;;;;;20.02;13.20;;;1.70;99.90;;;;;;4956557;28;20035;-69
2022/01/12 00:23:53;;;;;;;24.35;13.35;;;1.70;99.90;;;;;;4831762;28;20051;-62
2022/01/12 00:34:42;;;;;;;23.55;14.10;;;1.70;99.90;;;;;;4962555;28;20051;-64
2022/01/12 00:37:09;;;;;;;21.80;13.60;;;1.70;99.90;;;;;;4944935;28;20039;-63
2022/01/12 00:39:38;;;;;;;24.70;15.52;;;1.70;99.90;;;;;;4952741;28;20570;-63
2022/01/12 00:42:10;;;;;;;20.85;12.52;;;1.70;99.90;;;;;;4938581;28;20171;-65
2022/01/12 00:44:43;;;;;;;23.95;13.35;;;1.70;99.90;;;;;;4949523;28;20039;-66
2022/01/12 00:47:11;;;;;;;27.70;14.65;;;1.70;99.90;;;;;;4951543;28;20043;-62
2022/01/12 00:49:38;;;;;;;23.50;13.85;;;1.70;99.90;;;;;;4946053;28;20050;-66
2022/01/12 00:52:05;;;;;;;22.98;15.00;;;1.70;99.90;;;;;;4948702;28;20382;-64
2022/01/12 00:54:32;;;;;;;27.75;14.98;;;1.70;99.90;;;;;;4944278;28;20043;-63
2022/01/12 00:56:59;;;;;;;27.45;15.63;;;1.70;99.90;;;;;;4953387;28;20093;-64
2022/01/12 00:59:26;;;;;;;28.55;16.98;;;1.80;99.90;;;;;;4948313;28;20075;-62
2022/01/12 01:01:56;;;;;;;33.33;15.52;;;1.80;99.90;;;;;;4878176;28;21003;-63
2022/01/12 01:04:36;;;;;;;31.25;18.45;;;1.80;99.90;;;;;;1023752;28;10023528;-65
2022/01/12 01:07:03;;;;;;;23.63;15.15;;;1.80;99.90;;;;;;4605483;28;10000814;-63
2022/01/12 01:09:33;;;;;;;29.42;16.58;;;1.80;99.90;;;;;;4978827;28;20093;-67
2022/01/12 01:12:00;;;;;;;28.00;16.02;;;1.80;99.90;;;;;;4960340;28;20047;-63
2022/01/12 01:14:44;;;;;;;34.15;19.50;;;1.80;99.90;;;;;;4965446;28;20370;-63
2022/01/12 01:25:32;;;;;;;28.08;16.70;;;1.80;99.90;;;;;;4966788;28;20055;-67
2022/01/12 01:28:00;;;;;;;35.72;18.15;;;1.80;99.90;;;;;;4947991;28;20201;-63
2022/01/12 01:30:28;;;;;;;28.42;17.10;;;1.80;99.90;;;;;;4973100;28;20054;-70
2022/01/12 01:33:03;;;;;;;29.02;18.45;;;1.90;99.90;;;;;;4947928;28;20059;-64
2022/01/12 01:35:31;;;;;;;36.78;17.88;;;1.90;99.90;;;;;;4969799;28;20047;-63
2022/01/12 01:38:01;;;;;;;29.08;19.20;;;1.80;99.90;;;;;;4977527;28;20039;-63
2022/01/12 01:40:30;;;;;;;;;;;1.90;99.90;;;;;;4945245;28;20057;-65
2022/01/12 01:53:52;;;;;;;29.20;16.27;;;1.90;99.90;;;;;;4956673;28;20457;-62
2022/01/12 01:56:19;;;;;;;26.95;14.90;;;1.90;99.90;;;;;;4944314;28;20039;-63
2022/01/12 01:58:47;;;;;;;26.98;15.20;;;1.90;99.90;;;;;;4970310;28;20043;-64
2022/01/12 02:01:15;;;;;;;31.70;17.77;;;1.90;99.90;;;;;;4959118;28;20216;-69
2022/01/12 02:03:52;;;;;;;27.85;16.90;;;2.00;99.90;;;;;;4971195;28;20138;-62
2022/01/12 02:06:19;;;;;;;27.67;17.08;;;1.90;99.90;;;;;;4956991;28;20047;-62
2022/01/12 02:08:46;;;;;;;26.25;16.33;;;1.90;99.90;;;;;;4953318;28;20130;-65
2022/01/12 02:11:51;;;;;;;30.48;17.83;;;1.90;99.90;;;;;;4950022;28;20416;-66
2022/01/12 02:14:21;;;;;;;27.60;17.08;;;1.90;99.90;;;;;;4972763;28;20043;-62
2022/01/12 02:16:56;;;;;;;25.73;16.73;;;1.80;99.90;;;;;;4944448;28;20047;-64
2022/01/12 02:35:54;;;;;;;36.63;18.73;;;1.80;99.90;;;;;;4942743;28;20039;-66
2022/01/12 02:41:07;;;;;;;35.90;20.27;;;1.80;99.90;;;;;;4940974;28;20055;-64
2022/01/12 02:53:38;;;;;;;34.10;19.80;;;1.70;99.90;;;;;;4944600;28;20078;-67
2022/01/12 02:54:21;;;;;;;36.20;19.13;;;1.70;99.90;;;;;;4941367;28;20058;-68
2022/01/12 02:56:49;;;;;;;32.08;17.58;;;1.70;99.90;;;;;;4964879;28;20082;-66
2022/01/12 02:59:16;;;;;;;35.33;20.10;;;1.70;99.90;;;;;;4957265;28;20074;-67
2022/01/12 03:04:28;;;;;;;32.00;17.60;;;1.70;99.90;;;;;;4973265;28;20500;-64
2022/01/12 03:07:04;;;;;;;38.22;20.83;;;1.70;99.90;;;;;;4943062;28;20042;-63
2022/01/12 03:09:32;;;;;;;40.47;18.15;;;1.70;99.90;;;;;;4966493;28;20051;-68
2022/01/12 03:12:00;;;;;;;34.17;19.80;;;1.70;99.90;;;;;;4955279;28;20039;-63
2022/01/12 03:14:28;;;;;;;32.17;20.27;;;1.60;99.90;;;;;;4957003;28;20048;-69
2022/01/12 03:16:55;;;;;;;29.85;17.63;;;1.60;99.90;;;;;;4953356;28;20054;-63
2022/01/12 03:19:28;;;;;;;30.63;19.33;;;1.70;99.90;;;;;;4956461;28;20039;-63
2022/01/12 03:21:56;;;;;;;31.70;16.27;;;1.70;99.90;;;;;;4946073;28;20434;-63
2022/01/12 03:24:23;;;;;;;36.13;20.63;;;1.70;99.90;;;;;;4957361;28;20051;-63
2022/01/12 03:26:50;;;;;;;29.25;18.33;;;1.70;99.90;;;;;;4960054;28;20146;-67
2022/01/12 03:29:18;;;;;;;34.45;20.13;;;1.70;99.90;;;;;;4956238;28;20454;-67
2022/01/12 03:31:45;;;;;;;35.83;19.70;;;1.70;99.90;;;;;;4960616;28;20338;-65
2022/01/12 03:34:25;;;;;;;35.80;19.92;;;1.70;99.90;;;;;;4945907;28;20055;-66
2022/01/12 03:39:22;;;;;;;35.20;21.80;;;1.70;99.90;;;;;;4946805;28;20047;-63
2022/01/12 03:41:50;;;;;;;35.40;18.92;;;1.70;99.90;;;;;;4958272;28;20051;-71
2022/01/12 03:44:19;;;;;;;42.30;22.10;;;1.70;99.90;;;;;;4969421;28;20106;-64
2022/01/12 03:46:50;;;;;;;30.73;19.65;;;1.70;99.90;;;;;;4944814;28;20098;-63
2022/01/12 03:49:19;;;;;;;32.72;18.08;;;1.70;99.90;;;;;;4961777;28;20043;-65
2022/01/12 03:51:48;;;;;;;34.78;18.80;;;1.70;99.90;;;;;;4958734;28;20103;-64
2022/01/12 03:54:15;;;;;;;29.73;17.17;;;1.70;99.90;;;;;;4958090;28;20047;-69
2022/01/12 03:56:48;;;;;;;34.88;17.08;;;1.70;99.90;;;;;;4674673;28;10001078;-66
2022/01/12 03:59:15;;;;;;;31.42;16.13;;;1.70;99.90;;;;;;662051;28;10001993;-66
2022/01/12 04:01:53;;;;;;;29.45;17.05;;;1.70;99.90;;;;;;2319915;28;10023518;-64
2022/01/12 04:04:29;;;;;;;28.35;15.85;;;1.70;99.90;;;;;;3236417;28;10001384;-62
2022/01/12 04:09:45;;;;;;;27.33;15.65;;;1.70;99.90;;;;;;4962151;28;20041;-64
2022/01/12 04:12:14;;;;;;;30.70;16.55;;;1.70;99.90;;;;;;4976918;28;20629;-64
2022/01/12 04:14:41;;;;;;;28.52;15.95;;;1.70;99.90;;;;;;4957221;28;20501;-65
2022/01/12 04:17:09;;;;;;;29.58;17.17;;;1.70;99.90;;;;;;4958130;28;20102;-63
2022/01/12 04:19:37;;;;;;;29.73;15.75;;;1.70;99.90;;;;;;4964324;28;20633;-65
2022/01/12 04:23:16;;;;;;;29.63;17.92;;;1.70;99.90;;;;;;4988873;28;20716;-64
2022/01/12 04:24:54;;;;;;;28.40;15.52;;;1.70;99.90;;;;;;4978269;28;20046;-65
2022/01/12 04:27:21;;;;;;;30.50;16.02;;;1.70;99.90;;;;;;4940879;28;21397;-62
2022/01/12 04:29:48;;;;;;;30.60;17.35;;;1.70;99.90;;;;;;4954823;28;20051;-64
2022/01/12 04:32:15;;;;;;;27.50;15.60;;;1.70;99.90;;;;;;4957723;28;20167;-67
2022/01/12 04:34:42;;;;;;;36.92;16.92;;;1.70;99.90;;;;;;4962868;28;20066;-66
2022/01/12 04:37:09;;;;;;;30.55;17.20;;;1.70;99.90;;;;;;4959218;28;20051;-63
2022/01/12 04:39:38;;;;;;;35.47;16.63;;;1.80;99.90;;;;;;4904886;28;20260;-64
2022/01/12 04:42:21;;;;;;;27.73;14.45;;;1.80;99.90;;;;;;1139071;28;10023572;-63
2022/01/12 04:44:49;;;;;;;30.60;17.13;;;1.90;99.90;;;;;;4602092;28;10001652;-63
2022/01/12 04:47:29;;;;;;;39.72;17.92;;;1.90;99.90;;;;;;4949406;28;20091;-64
2022/01/12 04:49:58;;;;;;;38.83;20.00;;;2.00;99.90;;;;;;4967230;28;20086;-63
2022/01/12 04:52:25;;;;;;;35.90;18.92;;;2.00;99.90;;;;;;4963962;28;20508;-66
2022/01/12 04:54:52;;;;;;;36.70;17.25;;;2.00;99.90;;;;;;4960120;28;20066;-63
2022/01/12 04:57:22;;;;;;;38.92;20.13;;;2.00;99.90;;;;;;4964596;28;20070;-63
2022/01/12 05:00:04;;;;;;;32.47;18.60;;;2.10;99.90;;;;;;4960120;28;20390;-62
2022/01/12 05:13:31;;;;;;;39.33;18.92;;;2.00;99.90;;;;;;4960582;28;20379;-63
2022/01/12 05:16:00;;;;;;;33.55;16.35;;;2.00;99.90;;;;;;4943742;28;20442;-69
2022/01/12 05:18:28;;;;;;;34.30;17.50;;;2.00;99.90;;;;;;4961109;28;20047;-63
2022/01/12 05:20:56;;;;;;;32.58;18.42;;;1.90;99.90;;;;;;4896707;28;21172;-62
2022/01/12 05:23:23;;;;;;;27.75;17.83;;;1.90;99.90;;;;;;1293646;28;10001953;-62
2022/01/12 05:25:52;;;;;;;31.95;16.75;;;1.90;99.90;;;;;;4958666;28;20532;-64
2022/01/12 05:28:21;;;;;;;39.85;20.80;;;1.90;99.90;;;;;;4973809;28;20055;-64
2022/01/12 05:30:49;;;;;;;36.00;18.20;;;1.90;99.90;;;;;;4960634;28;20047;-63
2022/01/12 05:33:18;;;;;;;35.17;19.33;;;1.90;99.90;;;;;;4942945;28;20055;-66
2022/01/12 05:35:45;;;;;;;34.85;19.73;;;1.90;99.90;;;;;;4951734;28;20039;-64
2022/01/12 05:38:14;;;;;;;38.83;21.00;;;1.90;99.90;;;;;;4973605;28;20089;-67
2022/01/12 05:40:47;;;;;;;34.50;18.77;;;1.90;99.90;;;;;;4956526;28;20039;-63
2022/01/12 05:43:23;;;;;;;40.08;18.88;;;1.90;99.90;;;;;;4965353;28;20447;-68
2022/01/12 05:45:52;;;;;;;33.13;19.15;;;1.80;99.90;;;;;;4954664;28;20607;-63
2022/01/12 05:50:48;;;;;;;38.17;18.63;;;2.00;99.90;;;;;;4970416;28;20043;-65
2022/01/12 05:53:18;;;;;;;32.75;17.92;;;2.00;99.90;;;;;;4953019;28;20090;-65
2022/01/12 05:55:50;;;;;;;27.17;16.50;;;2.00;99.90;;;;;;4972290;28;20051;-62
2022/01/12 05:58:17;;;;;;;26.08;15.57;;;2.00;99.90;;;;;;4973896;28;20063;-69
2022/01/12 06:00:44;;;;;;;31.35;17.92;;;2.00;99.90;;;;;;4955883;28;20386;-64
2022/01/12 06:03:27;;;;;;;29.98;16.17;;;2.00;99.90;;;;;;4302602;28;10001218;-63
2022/01/12 06:05:53;;;;;;;31.60;16.40;;;2.00;99.90;;;;;;1360218;28;10002065;-69
2022/01/12 06:08:20;;;;;;;31.85;16.42;;;2.00;99.90;;;;;;4975432;28;20293;-62
2022/01/12 06:10:48;;;;;;;24.80;14.80;;;2.00;99.90;;;;;;4947092;28;20382;-65
2022/01/12 06:13:15;;;;;;;26.00;16.38;;;2.00;99.90;;;;;;4962858;28;20445;-68
2022/01/12 06:15:42;;;;;;;34.55;17.25;;;2.00;99.90;;;;;;4975576;28;20131;-65
2022/01/12 06:18:10;;;;;;;26.45;14.88;;;2.00;99.90;;;;;;4948091;28;20044;-62
2022/01/12 06:20:36;;;;;;;31.80;19.70;;;2.10;99.90;;;;;;4959063;28;20054;-65
2022/01/12 06:23:12;;;;;;;25.40;15.60;;;2.00;99.90;;;;;;4936525;28;20123;-63
2022/01/12 06:25:44;;;;;;;29.42;16.27;;;2.00;99.90;;;;;;4958494;28;20058;-64
2022/01/12 06:31:11;;;;;;;25.55;14.93;;;2.00;99.90;;;;;;4941686;28;20502;-63
2022/01/12 06:33:45;;;;;;;;;;;1.90;99.90;;;;;;4944665;28;20189;-64
2022/01/12 06:36:17;;;;;;;26.88;15.73;;;1.90;99.90;;;;;;4944483;28;19918;-65
2022/01/12 06:38:45;;;;;;;31.30;17.42;;;1.90;99.90;;;;;;4969282;28;20402;-62
2022/01/12 06:41:13;;;;;;;34.30;17.10;;;1.90;99.90;;;;;;4975722;28;20445;-62
2022/01/12 06:43:41;;;;;;;29.83;15.98;;;1.90;99.90;;;;;;4953581;28;20043;-63
2022/01/12 06:46:10;;;;;;;25.92;16.13;;;1.90;99.90;;;;;;4954028;28;20066;-66
2022/01/12 06:48:37;;;;;;;28.90;16.33;;;1.90;99.90;;;;;;4938678;28;20398;-64
2022/01/12 06:51:05;;;;;;;37.67;18.98;;;1.90;99.90;;;;;;4951249;28;20146;-70
2022/01/12 06:53:32;;;;;;;40.72;18.63;;;2.00;99.90;;;;;;4957424;28;20066;-69
2022/01/12 06:56:02;;;;;;;28.02;16.15;;;2.00;99.90;;;;;;4954448;28;20075;-63
2022/01/12 06:58:31;;;;;;;32.03;16.58;;;2.00;99.90;;;;;;4953927;28;20051;-62
2022/01/12 07:00:58;;;;;;;29.95;17.15;;;2.00;99.90;;;;;;4941187;28;20125;-67
2022/01/12 07:03:30;;;;;;;30.25;17.63;;;2.10;99.90;;;;;;4957947;28;20062;-67
2022/01/12 07:05:58;;;;;;;28.92;16.00;;;2.10;99.90;;;;;;4959322;28;20502;-67
2022/01/12 07:08:26;;;;;;;34.60;16.75;;;2.00;99.90;;;;;;4954914;28;20085;-64
2022/01/12 07:10:54;;;;;;;35.67;17.67;;;2.10;99.90;;;;;;4956705;28;20075;-62
2022/01/12 07:13:23;;;;;;;33.03;17.42;;;2.10;99.90;;;;;;4958323;28;20197;-64
2022/01/12 07:15:55;;;;;;;32.08;17.15;;;2.10;99.90;;;;;;4943104;28;20674;-64
2022/01/12 07:18:24;;;;;;;36.58;19.95;;;2.10;99.90;;;;;;4953363;28;20051;-64
2022/01/12 07:20:52;;;;;;;34.40;20.10;;;2.10;99.90;;;;;;4945850;28;20043;-64
2022/01/12 07:23:19;;;;;;;39.17;19.90;;;2.10;99.90;;;;;;4942432;28;20462;-64
2022/01/12 07:25:46;;;;;;;37.40;19.15;;;2.20;99.90;;;;;;4941414;28;20150;-71
2022/01/12 07:28:13;;;;;;;32.20;18.10;;;2.20;99.90;;;;;;4942698;28;20126;-62
2022/01/12 07:30:40;;;;;;;33.03;17.85;;;2.10;99.90;;;;;;4942097;28;20114;-62
2022/01/12 07:33:10;;;;;;;26.27;15.23;;;2.20;99.90;;;;;;4943923;28;20206;-68
2022/01/12 07:35:38;;;;;;;30.50;16.85;;;2.20;99.90;;;;;;4942902;28;20106;-63
2022/01/12 07:38:05;;;;;;;29.95;17.30;;;2.10;99.90;;;;;;4942728;28;20054;-63
2022/01/12 07:40:33;;;;;;;36.22;18.23;;;2.10;99.90;;;;;;4944409;28;20039;-63
2022/01/12 07:43:00;;;;;;;30.92;17.15;;;2.10;99.90;;;;;;4949021;28;20106;-63
2022/01/12 07:45:27;;;;;;;26.33;15.35;;;2.10;99.90;;;;;;4949010;28;20047;-62
2022/01/12 07:47:54;;;;;;;32.63;18.98;;;2.10;99.90;;;;;;4946103;28;20051;-67
2022/01/12 07:50:21;;;;;;;26.92;15.80;;;2.10;99.90;;;;;;4944747;28;20390;-62
2022/01/12 07:52:53;;;;;;;32.47;15.98;;;2.10;99.90;;;;;;4943324;28;20133;-65
2022/01/12 07:55:21;;;;;;;30.85;18.13;;;2.10;99.90;;;;;;4945296;28;20151;-63
2022/01/12 07:57:49;;;;;;;28.30;15.68;;;2.10;99.90;;;;;;4945958;28;20548;-66
2022/01/12 08:00:17;;;;;;;29.52;18.35;;;2.10;99.90;;;;;;4947264;28;20071;-64
2022/01/12 08:02:50;;;;;;;29.25;16.50;;;2.10;99.90;;;;;;4608807;28;10000628;-64
2022/01/12 08:05:19;;;;;;;28.90;17.40;;;2.20;99.90;;;;;;677472;28;10001972;-69
2022/01/12 08:07:47;;;;;;;29.60;16.65;;;2.20;99.90;;;;;;4941912;28;20286;-68
2022/01/12 08:10:15;;;;;;;30.70;16.10;;;2.20;99.90;;;;;;4948748;28;20066;-63
2022/01/12 08:12:43;;;;;;;27.75;14.45;;;2.20;99.90;;;;;;4945524;28;20092;-65
2022/01/12 08:15:10;;;;;;;31.02;18.00;;;2.20;99.90;;;;;;4947029;28;20453;-64
2022/01/12 08:17:37;;;;;;;25.17;13.60;;;2.20;99.90;;;;;;4941926;28;20046;-63
2022/01/12 08:20:07;;;;;;;22.83;13.63;;;2.20;99.90;;;;;;4948406;28;20040;-64
2022/01/12 08:22:34;;;;;;;27.08;15.43;;;2.30;99.90;;;;;;4943633;28;20065;-66
2022/01/12 08:25:02;;;;;;;23.90;13.90;;;2.30;99.90;;;;;;4948140;28;20406;-63
2022/01/12 08:27:29;;;;;;;21.25;12.95;;;2.30;99.90;;;;;;4948853;28;20383;-63
2022/01/12 08:30:01;;;;;;;24.08;13.63;;;2.30;99.90;;;;;;4947980;28;20773;-62
2022/01/12 08:32:29;;;;;;;19.80;13.10;;;2.30;99.90;;;;;;4943809;28;20065;-63
2022/01/12 08:34:57;;;;;;;23.38;11.98;;;2.30;99.90;;;;;;4948404;28;20043;-63
2022/01/12 08:37:24;;;;;;;25.27;14.63;;;2.30;99.90;;;;;;4957849;28;20058;-62
2022/01/12 08:39:52;;;;;;;21.58;12.95;;;2.30;99.90;;;;;;4947156;28;20057;-66
2022/01/12 08:42:19;;;;;;;22.48;14.30;;;2.30;99.90;;;;;;4945919;28;20409;-63
2022/01/12 08:44:47;;;;;;;22.13;12.80;;;2.30;99.90;;;;;;4948324;28;20047;-63
2022/01/12 08:47:14;;;;;;;20.95;13.68;;;2.30;99.90;;;;;;4947535;28;20054;-63
2022/01/12 08:49:41;;;;;;;22.25;13.40;;;2.30;99.90;;;;;;4948836;28;20047;-62
2022/01/12 08:52:09;;;;;;;22.90;12.35;;;2.40;99.90;;;;;;4940690;28;20043;-63
2022/01/12 08:54:36;;;;;;;20.50;12.07;;;2.40;99.90;;;;;;4948501;28;20058;-65
2022/01/12 08:57:04;;;;;;;19.90;10.95;;;2.40;99.90;;;;;;4946383;28;20053;-63
2022/01/12 08:59:31;;;;;;;21.67;12.80;;;2.40;99.90;;;;;;4948242;28;20055;-65
2022/01/12 09:01:58;;;;;;;21.83;12.32;;;2.40;99.90;;;;;;4945579;28;20039;-63
2022/01/12 09:04:27;;;;;;;22.23;12.52;;;2.40;99.90;;;;;;4940576;28;20043;-63
2022/01/12 09:06:55;;;;;;;23.05;13.02;;;2.50;99.90;;;;;;4947609;28;20043;-66
2022/01/12 09:09:22;;;;;;;21.45;14.00;;;2.50;99.90;;;;;;4945882;28;20055;-64
2022/01/12 09:11:49;;;;;;;23.42;12.25;;;2.40;99.90;;;;;;4936560;28;20048;-66
2022/01/12 09:14:16;;;;;;;24.13;12.23;;;2.40;99.90;;;;;;4944312;28;20039;-69
2022/01/12 09:16:44;;;;;;;21.45;12.32;;;2.50;99.90;;;;;;4945375;28;20063;-64
2022/01/12 09:19:12;;;;;;;20.45;12.80;;;2.50;99.90;;;;;;4945387;28;20130;-64
2022/01/12 09:21:39;;;;;;;20.65;11.77;;;2.50;99.90;;;;;;4946307;28;20417;-62
2022/01/12 09:24:06;;;;;;;17.15;10.13;;;2.50;99.90;;;;;;4944908;28;20047;-63
2022/01/12 09:26:33;;;;;;;14.30;8.90;;;2.50;99.90;;;;;;4944370;28;20070;-65
2022/01/12 09:29:02;;;;;;;15.13;8.40;;;2.50;99.90;;;;;;4933793;28;20039;-63
2022/01/12 09:31:29;;;;;;;9.05;6.75;;;2.50;99.90;;;;;;4944135;28;20039;-64
2022/01/12 09:33:56;;;;;;;15.38;8.15;;;2.50;99.90;;;;;;4944873;28;20191;-63
2022/01/12 09:36:24;;;;;;;12.48;7.03;;;2.50;99.90;;;;;;4942531;28;20051;-67
2022/01/12 09:38:51;;;;;;;15.20;7.53;;;2.50;99.90;;;;;;4944119;28;20393;-66
2022/01/12 09:41:18;;;;;;;10.18;6.25;;;2.60;99.90;;;;;;4943368;28;20051;-66
2022/01/12 09:43:49;;;;;;;11.98;6.22;;;2.60;99.90;;;;;;4943489;28;20043;-63
2022/01/12 09:46:18;;;;;;;13.63;7.47;;;2.50;99.90;;;;;;4942065;28;20409;-67
2022/01/12 09:48:46;;;;;;;11.75;7.28;;;2.50;99.90;;;;;;4944077;28;20062;-70
2022/01/12 09:51:13;;;;;;;12.30;6.60;;;2.50;99.90;;;;;;4944111;28;20050;-65
2022/01/12 09:53:41;;;;;;;8.98;6.05;;;2.50;99.90;;;;;;4942678;28;21451;-63
2022/01/12 09:56:21;;;;;;;12.30;7.60;;;2.50;99.90;;;;;;4944269;28;20047;-63
2022/01/12 09:58:54;;;;;;;12.13;6.60;;;2.50;99.90;;;;;;4957630;28;20077;-64
2022/01/12 10:01:36;;;;;;;10.57;7.45;;;2.50;99.90;;;;;;4920676;28;20045;-65
2022/01/12 10:04:20;;;;;;;14.93;8.33;;;2.50;99.90;;;;;;4317418;28;10000956;-65
2022/01/12 10:06:53;;;;;;;16.00;10.50;;;2.50;99.90;;;;;;2731554;28;10001957;-63
2022/01/12 10:09:48;;;;;;;13.98;8.95;;;2.50;99.90;;;;;;4943921;28;20047;-62
2022/01/12 10:12:16;;;;;;;15.93;9.50;;;2.60;99.90;;;;;;4937376;28;20512;-63
2022/01/12 10:14:55;;;;;;;19.30;9.32;;;2.60;99.90;;;;;;4969167;28;20083;-69
2022/01/12 10:17:33;;;;;;;16.50;9.35;;;2.60;99.90;;;;;;4940837;28;20051;-67
2022/01/12 10:20:18;;;;;;;19.20;9.88;;;2.60;99.90;;;;;;4942577;28;20075;-63
2022/01/12 10:23:00;;;;;;;17.98;10.15;;;2.60;99.90;;;;;;4940760;28;20040;-64
2022/01/12 10:25:30;;;;;;;14.00;8.45;;;2.60;99.90;;;;;;4945912;28;20047;-65
2022/01/12 10:27:58;;;;;;;19.98;8.15;;;2.60;99.90;;;;;;4954874;28;20047;-62
2022/01/12 10:30:29;;;;;;;16.13;7.38;;;2.60;99.90;;;;;;4945512;28;20513;-63
2022/01/12 10:33:05;;;;;;;14.07;8.15;;;2.60;99.90;;;;;;4941221;28;20035;-68
2022/01/12 10:35:39;;;;;;;10.90;6.15;;;2.60;99.90;;;;;;4944841;28;20063;-64
2022/01/12 10:38:12;;;;;;;14.25;7.78;;;2.60;99.90;;;;;;4943516;28;20564;-64
2022/01/12 10:40:51;;;;;;;12.32;7.15;;;2.60;99.90;;;;;;4937006;28;20066;-63
2022/01/12 10:43:40;;;;;;;11.18;6.55;;;2.60;99.90;;;;;;4944479;28;20071;-63
2022/01/12 10:46:10;;;;;;;13.73;7.60;;;2.60;99.90;;;;;;4941361;28;20508;-63
2022/01/12 10:48:49;;;;;;;10.02;6.50;;;2.60;99.90;;;;;;4941708;28;20227;-65
2022/01/12 10:51:19;;;;;;;11.82;8.52;;;2.60;99.90;;;;;;4943981;28;20066;-67
2022/01/12 10:53:50;;;;;;;;;;;2.60;99.90;;;;;;4939636;28;20145;-67
2022/01/12 10:56:21;;;;;;;11.95;7.10;;;2.50;99.90;;;;;;4942642;28;19918;-67
2022/01/12 10:58:50;;;;;;;17.80;7.85;;;2.50;99.90;;;;;;4944646;28;20058;-62
2022/01/12 11:01:20;;;;;;;11.93;7.10;;;2.60;99.90;;;;;;4942710;28;20047;-65
2022/01/12 11:03:48;;;;;;;10.65;6.75;;;2.50;99.90;;;;;;4968339;28;20051;-63
2022/01/12 11:06:16;;;;;;;14.15;6.20;;;2.50;99.90;;;;;;4937658;28;20492;-67
2022/01/12 11:08:47;;;;;;;17.88;6.63;;;2.50;99.90;;;;;;4942952;28;20047;-63
2022/01/12 11:11:20;;;;;;;13.20;7.20;;;2.50;99.90;;;;;;4945107;28;20146;-63
2022/01/12 11:13:48;;;;;;;15.57;8.18;;;2.50;99.90;;;;;;4946169;28;20094;-64
2022/01/12 11:16:20;;;;;;;13.85;6.47;;;2.50;99.90;;;;;;4943984;28;20047;-65
2022/01/12 11:18:47;;;;;;;11.27;6.72;;;2.50;99.90;;;;;;4941974;28;20098;-63
2022/01/12 11:21:30;;;;;;;17.95;6.20;;;2.50;99.90;;;;;;4943391;28;20082;-66
2022/01/12 11:23:58;;;;;;;19.38;7.80;;;2.50;99.90;;;;;;4971872;28;20039;-63
2022/01/12 11:26:28;;;;;;;13.77;7.93;;;2.50;99.90;;;;;;4946657;28;20047;-63
2022/01/12 11:28:56;;;;;;;14.45;6.35;;;2.50;99.90;;;;;;4943110;28;20063;-65
2022/01/12 11:31:32;;;;;;;12.35;6.32;;;2.50;99.90;;;;;;4933765;28;20118;-69
2022/01/12 11:34:00;;;;;;;10.00;6.00;;;2.60;99.90;;;;;;4931157;28;20115;-65
2022/01/12 11:36:38;;;;;;;14.80;6.82;;;2.60;99.90;;;;;;4943736;28;20101;-63
2022/01/12 11:39:11;;;;;;;8.73;6.57;;;2.60;99.90;;;;;;4949894;28;20487;-68
2022/01/12 11:41:46;;;;;;;13.90;6.47;;;2.60;99.90;;;;;;4948755;28;20055;-62
2022/01/12 11:44:29;;;;;;;16.27;7.50;;;2.50;99.90;;;;;;4955709;28;20047;-65
2022/01/12 11:46:59;;;;;;;15.02;6.05;;;2.60;99.90;;;;;;4943577;28;20378;-66
2022/01/12 11:49:42;;;;;;;10.13;5.68;;;2.50;99.90;;;;;;4943798;28;20152;-65
2022/01/12 11:52:17;;;;;;;13.93;5.95;;;2.60;99.90;;;;;;4943834;28;20042;-63
2022/01/12 11:54:47;;;;;;;22.27;9.02;;;2.60;99.90;;;;;;4943797;28;20043;-70
2022/01/12 11:57:19;;;;;;;9.02;5.25;;;2.50;99.90;;;;;;4946062;28;20054;-71
2022/01/12 11:59:54;;;;;;;9.43;5.70;;;2.60;99.90;;;;;;4945263;28;20043;-64
2022/01/12 12:02:33;;;;;;;9.70;5.03;;;2.60;99.90;;;;;;4863961;28;20725;-63
2022/01/12 12:05:06;;;;;;;15.56;5.64;;;2.60;99.90;;;;;;307294;28;10023376;-64
2022/01/12 12:07:50;;;;;;;20.95;7.25;;;2.60;99.90;;;;;;4947324;28;20426;-64
2022/01/12 12:10:29;;;;;;;9.32;4.57;;;2.60;99.90;;;;;;4940480;28;20150;-63
2022/01/12 12:12:57;;;;;;;12.52;6.10;;;2.60;99.90;;;;;;4945968;28;20184;-63
2022/01/12 12:15:26;;;;;;;13.32;6.57;;;2.60;99.90;;;;;;4957546;28;20106;-70
2022/01/12 12:17:54;;;;;;;13.25;5.63;;;2.60;99.90;;;;;;4948558;28;20217;-65
2022/01/12 12:20:24;;;;;;;10.73;5.13;;;2.60;99.90;;;;;;4945243;28;20059;-63
2022/01/12 12:22:55;;;;;;;11.43;4.25;;;2.70;99.90;;;;;;4939247;28;20062;-63
2022/01/12 12:25:30;;;;;;;11.35;4.53;;;2.70;99.90;;;;;;4943001;28;20110;-67
2022/01/12 12:28:07;;;;;;;21.40;5.70;;;2.60;99.90;;;;;;4944751;28;20054;-64
2022/01/12 12:30:38;;;;;;;12.93;4.07;;;2.70;99.90;;;;;;4940781;28;20050;-62
2022/01/12 12:33:13;;;;;;;11.07;5.13;;;2.60;99.90;;;;;;4942341;28;20039;-64
2022/01/12 12:35:43;;;;;;;10.70;4.25;;;2.60;99.90;;;;;;4946945;28;20043;-69
2022/01/12 12:38:15;;;;;;;16.05;4.47;;;2.60;99.90;;;;;;4945544;28;20040;-63
2022/01/12 12:40:53;;;;;;;8.48;4.30;;;2.60;99.90;;;;;;4960343;28;20039;-63
2022/01/12 12:43:26;;;;;;;14.52;4.10;;;2.60;99.90;;;;;;4940239;28;20046;-63
2022/01/12 12:46:02;;;;;;;16.88;4.75;;;2.60;99.90;;;;;;4944875;28;20138;-65
2022/01/12 12:48:34;;;;;;;12.13;5.03;;;2.50;99.90;;;;;;4942765;28;20047;-64
2022/01/12 12:51:03;;;;;;;10.95;4.05;;;2.60;99.90;;;;;;4941501;28;20035;-62
2022/01/12 12:53:38;;;;;;;6.63;3.38;;;2.60;99.90;;;;;;4941295;28;20689;-63
2022/01/12 12:56:14;;;;;;;15.98;4.30;;;2.60;99.90;;;;;;4946447;28;20039;-63
2022/01/12 12:58:43;;;;;;;7.05;2.95;;;2.60;99.90;;;;;;4944743;28;20048;-64
2022/01/12 13:01:14;;;;;;;13.13;5.13;;;2.60;99.90;;;;;;4945074;28;20791;-63
2022/01/12 13:03:54;;;;;;;;;;;2.60;99.90;;;;;;4944673;28;20060;-63
2022/01/12 13:06:28;;;;;;;13.68;3.60;;;2.60;99.90;;;;;;4954485;28;19918;-62
2022/01/12 13:08:57;;;;;;;11.07;3.40;;;2.60;99.90;;;;;;4941661;28;20605;-66
2022/01/12 13:11:30;;;;;;;8.55;2.92;;;2.60;99.90;;;;;;4938215;28;20039;-65
2022/01/12 13:13:59;;;;;;;15.68;3.35;;;2.60;99.90;;;;;;4941881;28;20631;-66
2022/01/12 13:16:27;;;;;;;10.98;4.13;;;2.60;99.90;;;;;;4944779;28;20508;-62
2022/01/12 13:19:20;;;;;;;10.63;3.35;;;2.60;99.90;;;;;;4941661;28;20122;-64
2022/01/12 13:21:47;;;;;;;12.40;2.80;;;2.60;99.90;;;;;;4943683;28;20054;-68
2022/01/12 13:24:15;;;;;;;10.85;3.50;;;2.60;99.90;;;;;;4937754;28;20138;-63
2022/01/12 13:26:42;;;;;;;10.07;2.97;;;2.60;99.90;;;;;;4945243;28;20062;-63
2022/01/12 13:29:13;;;;;;;8.02;3.40;;;2.60;99.90;;;;;;4944838;28;20050;-67
2022/01/12 13:31:43;;;;;;;8.23;4.63;;;2.60;99.90;;;;;;4946283;28;20059;-63
2022/01/12 13:34:14;;;;;;;10.70;2.50;;;2.60;99.90;;;;;;4943330;28;20041;-62
2022/01/12 13:36:49;;;;;;;7.20;2.75;;;2.60;99.90;;;;;;4942276;28;20081;-65
2022/01/12 13:39:19;;;;;;;9.00;2.85;;;2.60;99.90;;;;;;4943564;28;20049;-63
2022/01/12 13:41:51;;;;;;;8.65;3.22;;;2.60;99.90;;;;;;4947183;28;20043;-65
2022/01/12 13:44:20;;;;;;;8.55;2.97;;;2.60;99.90;;;;;;4944852;28;20221;-66
2022/01/12 13:49:45;;;;;;;16.38;3.75;;;2.70;99.90;;;;;;4940808;28;20811;-64
2022/01/12 13:52:12;;;;;;;21.30;4.78;;;2.70;99.90;;;;;;4944310;28;20189;-63
2022/01/12 13:54:45;;;;;;;7.15;2.60;;;2.70;99.90;;;;;;4970856;28;20044;-64
2022/01/12 13:57:18;;;;;;;6.10;2.42;;;2.80;99.90;;;;;;4939328;28;20067;-63
2022/01/12 13:59:51;;;;;;;14.95;3.42;;;2.80;99.90;;;;;;4939764;28;20481;-64
2022/01/12 14:02:23;;;;;;;12.70;2.75;;;2.80;99.90;;;;;;4939550;28;20054;-63
2022/01/12 14:05:06;;;;;;;4.50;1.95;;;2.80;99.90;;;;;;4129897;28;10000703;-63
2022/01/12 14:07:40;;;;;;;11.68;3.78;;;2.80;99.90;;;;;;2386086;28;10002157;-63
2022/01/12 14:10:10;;;;;;;13.60;2.42;;;2.80;99.90;;;;;;4945731;28;20047;-71
2022/01/12 14:12:37;;;;;;;11.53;3.93;;;2.80;99.90;;;;;;4945009;28;20058;-64
2022/01/12 14:15:07;;;;;;;6.38;2.38;;;2.90;99.90;;;;;;4945232;28;20492;-64
2022/01/12 14:17:44;;;;;;;11.90;4.07;;;2.90;99.90;;;;;;4944448;28;20054;-67
2022/01/12 14:20:23;;;;;;;8.95;2.10;;;2.90;99.90;;;;;;4944369;28;20047;-64